Time;durP1;ratioP1;P1;durP2;ratioP2;P2;SDS_P1;SDS_P2;PMS_P1;PMS_P2;Temp;Humidity;BMP_temperature;BMP_pressure;BME280_temperature;BME280_humidity;BME280_pressure;Samples;Min_cycle;Max_cycle;Signal;HPM_P1;HPM_P2
2022/10/07 00:00:45;;;;;;;5.50;3.33;;;13.30;99.90;;;;;;5095046;28;20449;-72
2022/10/07 00:03:10;;;;;;;7.90;3.13;;;13.30;99.90;;;;;;5097676;28;20400;-71
2022/10/07 00:05:36;;;;;;;4.40;2.90;;;13.20;99.90;;;;;;5103252;28;20403;-70
2022/10/07 00:08:01;;;;;;;4.82;3.22;;;13.10;99.90;;;;;;5097587;28;20421;-71
2022/10/07 00:10:28;;;;;;;4.78;3.38;;;13.10;99.90;;;;;;5093375;28;20385;-71
2022/10/07 00:12:54;;;;;;;4.20;2.65;;;13.10;99.90;;;;;;5105618;28;20923;-70
2022/10/07 00:15:22;;;;;;;4.77;3.30;;;13.00;99.90;;;;;;5098123;28;20433;-70
2022/10/07 00:17:48;;;;;;;4.45;3.13;;;13.00;99.90;;;;;;5102952;28;20518;-71
2022/10/07 00:20:13;;;;;;;5.53;3.00;;;13.00;99.90;;;;;;5091900;28;20488;-71
2022/10/07 00:22:39;;;;;;;3.20;2.73;;;12.90;99.90;;;;;;5083678;28;20384;-71
2022/10/07 00:25:05;;;;;;;3.70;2.70;;;13.00;99.90;;;;;;5078137;28;20409;-71
2022/10/07 00:27:30;;;;;;;8.05;3.42;;;13.00;99.90;;;;;;5092052;28;20416;-71
2022/10/07 00:29:56;;;;;;;6.50;3.13;;;13.00;99.90;;;;;;5101526;28;20463;-71
2022/10/07 00:32:21;;;;;;;5.93;3.40;;;13.00;99.90;;;;;;5093362;28;20417;-71
2022/10/07 00:34:47;;;;;;;4.40;2.60;;;13.10;99.90;;;;;;5097472;28;20765;-71
2022/10/07 00:37:12;;;;;;;5.30;2.85;;;13.10;99.90;;;;;;5095339;28;20408;-72
2022/10/07 00:39:38;;;;;;;5.75;3.42;;;13.10;99.90;;;;;;5103829;28;20389;-71
2022/10/07 00:42:03;;;;;;;5.60;3.50;;;13.10;99.90;;;;;;5101027;28;20389;-71
2022/10/07 00:44:35;;;;;;;4.05;2.90;;;13.10;99.90;;;;;;5108066;28;20435;-70
2022/10/07 00:47:19;;;;;;;3.92;2.80;;;13.10;99.90;;;;;;5101795;28;20373;-71
2022/10/07 00:50:04;;;;;;;3.47;2.80;;;13.10;99.90;;;;;;5093569;28;20415;-71
2022/10/07 00:52:38;;;;;;;5.40;3.10;;;13.00;99.90;;;;;;5103949;28;20384;-70
2022/10/07 00:55:08;;;;;;;4.00;2.90;;;13.00;99.90;;;;;;5108115;28;20485;-71
2022/10/07 00:57:35;;;;;;;5.32;3.47;;;12.90;99.90;;;;;;5091652;28;20757;-71
2022/10/07 01:00:04;;;;;;;4.00;2.92;;;13.00;99.90;;;;;;5100906;28;20401;-71
2022/10/07 01:02:29;;;;;;;7.55;3.72;;;13.00;99.90;;;;;;5092689;28;20457;-71
2022/10/07 01:04:58;;;;;;;4.40;2.80;;;13.10;99.90;;;;;;5093618;28;20484;-70
2022/10/07 01:07:24;;;;;;;3.65;2.72;;;13.10;99.90;;;;;;5102248;28;20390;-71
2022/10/07 01:09:52;;;;;;;6.70;3.50;;;13.10;99.90;;;;;;5102491;28;20396;-71
2022/10/07 01:12:37;;;;;;;6.03;3.20;;;13.10;99.90;;;;;;5104526;28;20480;-71
2022/10/07 01:15:10;;;;;;;5.05;4.28;;;13.10;99.90;;;;;;5107463;28;20434;-71
2022/10/07 01:17:57;;;;;;;4.50;3.10;;;13.20;99.90;;;;;;5094271;28;21007;-71
2022/10/07 01:20:54;;;;;;;3.60;2.78;;;13.20;99.90;;;;;;5096590;28;20414;-71
2022/10/07 01:23:24;;;;;;;4.05;3.30;;;13.10;99.90;;;;;;5097208;28;20483;-71
2022/10/07 01:25:59;;;;;;;5.10;2.92;;;13.20;99.90;;;;;;5095927;28;20404;-71
2022/10/07 01:28:37;;;;;;;5.10;3.22;;;13.20;99.90;;;;;;5100288;28;20392;-71
2022/10/07 01:31:06;;;;;;;5.18;2.97;;;13.30;99.90;;;;;;5108722;28;20376;-71
2022/10/07 01:33:33;;;;;;;4.13;3.00;;;13.20;99.90;;;;;;5103793;28;20400;-71
2022/10/07 01:36:16;;;;;;;5.07;3.70;;;13.20;99.90;;;;;;5103753;28;20822;-71
2022/10/07 01:38:48;;;;;;;5.90;3.40;;;13.10;99.90;;;;;;5104444;28;20694;-71
2022/10/07 01:41:16;;;;;;;4.57;3.13;;;13.10;99.90;;;;;;5094390;28;20406;-71
2022/10/07 01:43:44;;;;;;;4.10;3.10;;;13.00;99.90;;;;;;5090535;28;20466;-71
2022/10/07 01:46:23;;;;;;;4.70;3.00;;;13.00;99.90;;;;;;5100613;28;20446;-72
2022/10/07 01:48:50;;;;;;;5.07;3.30;;;13.10;99.90;;;;;;5101917;28;20406;-71
2022/10/07 01:51:19;;;;;;;6.90;3.08;;;13.20;99.90;;;;;;5098088;28;20531;-71
2022/10/07 01:54:06;;;;;;;7.57;3.00;;;13.20;99.90;;;;;;5090556;28;20402;-71
2022/10/07 01:56:44;;;;;;;3.85;2.88;;;13.30;99.90;;;;;;5088387;28;20399;-71
2022/10/07 01:59:37;;;;;;;5.95;3.30;;;13.20;99.90;;;;;;5099958;28;20402;-71
2022/10/07 02:02:34;;;;;;;4.20;2.90;;;13.20;99.90;;;;;;5096588;28;20485;-71
2022/10/07 02:05:11;;;;;;;5.23;3.10;;;13.10;99.90;;;;;;5094208;28;20960;-71
2022/10/07 02:08:07;;;;;;;6.07;3.35;;;13.10;99.90;;;;;;5076457;28;20402;-71
2022/10/07 02:10:40;;;;;;;3.20;2.90;;;13.10;99.90;;;;;;5095744;28;20384;-71
2022/10/07 02:13:14;;;;;;;5.43;3.15;;;13.10;99.90;;;;;;5104071;28;20401;-71
2022/10/07 02:15:58;;;;;;;4.88;2.65;;;13.00;99.90;;;;;;5098179;28;20409;-70
2022/10/07 02:18:29;;;;;;;5.40;3.20;;;13.00;99.90;;;;;;5104691;28;20434;-71
2022/10/07 02:20:55;;;;;;;4.55;3.10;;;13.00;99.90;;;;;;5102900;28;20921;-70
2022/10/07 02:23:23;;;;;;;4.60;3.30;;;13.00;99.90;;;;;;5095813;27;20382;-71
2022/10/07 02:25:51;;;;;;;6.53;3.00;;;13.10;99.90;;;;;;5091024;28;20389;-71
2022/10/07 02:28:20;;;;;;;6.32;3.08;;;13.10;99.90;;;;;;5091258;28;20903;-71
2022/10/07 02:30:49;;;;;;;5.73;2.60;;;13.20;99.90;;;;;;5098929;28;20403;-71
2022/10/07 02:33:16;;;;;;;6.80;2.80;;;13.30;99.90;;;;;;5098773;28;20423;-71
2022/10/07 02:35:51;;;;;;;5.47;2.60;;;13.20;99.90;;;;;;5091019;28;20397;-71
2022/10/07 02:38:17;;;;;;;6.00;3.22;;;13.10;99.90;;;;;;5090506;28;20408;-71
2022/10/07 02:41:04;;;;;;;6.97;3.13;;;13.00;99.90;;;;;;5100088;28;20406;-71
2022/10/07 02:43:38;;;;;;;7.03;2.88;;;12.90;99.90;;;;;;5090672;28;21079;-71
2022/10/07 02:46:15;;;;;;;5.22;2.70;;;12.90;99.90;;;;;;5090674;28;20460;-71
2022/10/07 02:48:51;;;;;;;5.65;3.58;;;12.80;99.90;;;;;;5090475;28;20827;-71
2022/10/07 02:51:22;;;;;;;6.57;2.90;;;12.70;99.90;;;;;;5106601;28;20423;-71
2022/10/07 02:53:50;;;;;;;5.97;2.80;;;12.60;99.90;;;;;;5103850;28;20397;-71
2022/10/07 02:56:19;;;;;;;7.60;2.90;;;12.50;99.90;;;;;;5100262;28;20468;-71
2022/10/07 02:58:45;;;;;;;4.20;2.80;;;12.50;99.90;;;;;;5108545;28;20828;-71
2022/10/07 03:01:16;;;;;;;8.30;2.90;;;12.40;99.90;;;;;;5100158;28;20489;-71
2022/10/07 03:03:43;;;;;;;4.35;2.75;;;12.30;99.90;;;;;;5096919;28;20401;-71
2022/10/07 03:06:10;;;;;;;6.43;3.50;;;12.30;99.90;;;;;;5097931;28;20786;-71
2022/10/07 03:08:36;;;;;;;6.93;2.67;;;12.40;99.90;;;;;;5097860;28;20374;-71
2022/10/07 03:11:01;;;;;;;7.40;3.03;;;12.30;99.90;;;;;;5089179;28;20406;-71
2022/10/07 03:13:27;;;;;;;7.13;3.73;;;12.30;99.90;;;;;;5102500;28;20388;-71
2022/10/07 03:15:53;;;;;;;5.00;2.97;;;12.30;99.90;;;;;;5105587;28;20397;-71
2022/10/07 03:18:25;;;;;;;6.43;3.00;;;12.20;99.90;;;;;;5101787;28;20396;-71
2022/10/07 03:20:52;;;;;;;4.55;2.83;;;12.30;99.90;;;;;;5106635;28;20452;-71
2022/10/07 03:23:18;;;;;;;5.00;3.00;;;12.20;99.90;;;;;;5096413;28;20441;-71
2022/10/07 03:25:49;;;;;;;7.40;3.00;;;12.20;99.90;;;;;;5110436;28;20372;-71
2022/10/07 03:28:14;;;;;;;5.25;3.28;;;12.20;99.90;;;;;;5110544;28;20386;-71
2022/10/07 03:30:40;;;;;;;4.60;3.10;;;12.20;99.90;;;;;;5101891;28;20385;-71
2022/10/07 03:33:05;;;;;;;4.27;2.83;;;12.20;99.90;;;;;;5089956;28;20406;-71
2022/10/07 03:35:31;;;;;;;7.85;3.20;;;12.10;99.90;;;;;;5089139;28;20424;-71
2022/10/07 03:37:57;;;;;;;4.45;2.70;;;12.10;99.90;;;;;;5089780;28;20945;-71
2022/10/07 03:40:22;;;;;;;3.83;3.00;;;12.00;99.90;;;;;;5089087;28;20433;-71
2022/10/07 03:42:49;;;;;;;5.90;3.43;;;11.90;99.90;;;;;;5090072;28;20725;-71
2022/10/07 03:45:14;;;;;;;4.50;3.50;;;11.90;99.90;;;;;;5090065;28;20435;-71
2022/10/07 03:47:40;;;;;;;5.20;3.03;;;11.90;99.90;;;;;;5093946;28;20407;-71
2022/10/07 03:50:07;;;;;;;3.90;3.20;;;11.90;99.90;;;;;;5102091;28;20392;-71
2022/10/07 03:52:35;;;;;;;4.10;2.92;;;12.00;99.90;;;;;;5099446;28;20922;-71
2022/10/07 03:55:01;;;;;;;5.27;3.50;;;11.90;99.90;;;;;;5100651;28;20406;-71
2022/10/07 04:00:11;;;;;;;5.30;3.60;;;11.90;99.90;;;;;;5108335;28;20435;-71
2022/10/07 04:02:36;;;;;;;6.65;3.30;;;11.90;99.90;;;;;;5100708;28;20953;-70
2022/10/07 04:05:02;;;;;;;5.00;3.03;;;11.90;99.90;;;;;;5102035;28;20468;-71
2022/10/07 04:07:28;;;;;;;5.57;3.17;;;11.90;99.90;;;;;;5104925;28;20396;-71
2022/10/07 04:09:53;;;;;;;5.20;3.33;;;11.80;99.90;;;;;;5099582;28;20418;-71
2022/10/07 04:12:19;;;;;;;6.97;3.80;;;11.70;99.90;;;;;;5097918;28;20945;-71
2022/10/07 04:14:44;;;;;;;4.93;3.15;;;11.70;99.90;;;;;;5093021;28;20414;-71
2022/10/07 04:17:10;;;;;;;3.80;2.97;;;11.70;99.90;;;;;;5088731;28;20402;-71
2022/10/07 04:19:36;;;;;;;5.87;3.30;;;11.70;99.90;;;;;;5090786;28;20385;-71
2022/10/07 04:22:01;;;;;;;5.80;3.60;;;11.70;99.90;;;;;;5095825;28;20482;-71
2022/10/07 04:24:27;;;;;;;7.20;3.40;;;11.70;99.90;;;;;;5100559;28;20400;-71
2022/10/07 04:26:52;;;;;;;5.00;2.80;;;11.60;99.90;;;;;;5107261;28;20475;-71
2022/10/07 04:29:18;;;;;;;9.75;3.38;;;11.60;99.90;;;;;;5096531;28;20400;-71
2022/10/07 04:31:43;;;;;;;5.30;3.30;;;11.60;99.90;;;;;;5084124;28;20407;-70
2022/10/07 04:34:09;;;;;;;4.43;3.60;;;11.60;99.90;;;;;;5087659;28;20386;-71
2022/10/07 04:36:34;;;;;;;6.18;3.83;;;11.60;99.90;;;;;;5090468;28;20418;-71
2022/10/07 04:39:00;;;;;;;5.13;3.20;;;11.60;99.90;;;;;;5097102;28;20438;-71
2022/10/07 04:41:26;;;;;;;4.03;3.58;;;11.40;99.90;;;;;;5096818;28;20490;-72
2022/10/07 04:43:52;;;;;;;5.47;3.92;;;11.40;99.90;;;;;;5088563;28;20415;-71
2022/10/07 04:46:17;;;;;;;6.40;3.70;;;11.30;99.90;;;;;;5100342;28;20438;-71
2022/10/07 04:48:47;;;;;;;6.03;3.97;;;11.30;99.90;;;;;;5096917;28;20408;-71
2022/10/07 04:51:12;;;;;;;6.80;4.60;;;11.40;99.90;;;;;;5094290;28;20402;-71
2022/10/07 04:53:38;;;;;;;7.00;4.70;;;11.40;99.90;;;;;;5104280;28;20890;-71
2022/10/07 04:56:04;;;;;;;7.80;5.90;;;11.30;99.90;;;;;;5094079;28;20533;-71
2022/10/07 04:58:31;;;;;;;7.00;6.30;;;11.30;99.90;;;;;;5088901;28;20435;-71
2022/10/07 05:00:58;;;;;;;9.37;6.50;;;11.30;99.90;;;;;;5098366;28;20431;-71
2022/10/07 05:03:27;;;;;;;9.27;6.28;;;11.30;99.90;;;;;;5092615;28;20378;-71
2022/10/07 05:05:54;;;;;;;6.93;6.22;;;11.20;99.90;;;;;;5092704;28;20394;-71
2022/10/07 05:08:25;;;;;;;8.07;5.80;;;11.10;99.90;;;;;;5091171;28;20402;-71
2022/10/07 05:10:55;;;;;;;8.30;4.97;;;11.10;99.90;;;;;;5088998;28;20788;-72
2022/10/07 05:13:22;;;;;;;6.30;5.03;;;11.10;99.90;;;;;;5087723;28;20940;-72
2022/10/07 05:15:59;;;;;;;5.20;4.80;;;11.10;99.90;;;;;;5092797;28;20382;-72
2022/10/07 05:18:26;;;;;;;6.72;4.97;;;11.10;99.90;;;;;;5097795;28;20519;-72
2022/10/07 05:20:53;;;;;;;5.47;4.53;;;11.30;99.90;;;;;;5096341;28;20456;-72
2022/10/07 05:23:20;;;;;;;6.60;4.70;;;11.30;99.90;;;;;;5091688;28;20871;-72
2022/10/07 05:25:46;;;;;;;5.85;4.78;;;11.20;99.90;;;;;;5095704;28;20400;-71
2022/10/07 05:28:14;;;;;;;5.03;4.40;;;11.20;99.90;;;;;;5082154;28;20403;-72
2022/10/07 05:30:40;;;;;;;7.80;5.28;;;11.20;99.90;;;;;;5089011;28;20522;-71
2022/10/07 05:33:06;;;;;;;6.97;4.50;;;11.20;99.90;;;;;;5088938;28;20910;-72
2022/10/07 05:35:33;;;;;;;6.30;4.90;;;11.30;99.90;;;;;;5101621;28;20400;-72
2022/10/07 05:37:59;;;;;;;8.38;5.15;;;11.30;99.90;;;;;;5095685;28;20402;-72
2022/10/07 05:40:25;;;;;;;8.65;5.70;;;11.30;99.90;;;;;;5097535;28;20422;-71
2022/10/07 05:42:51;;;;;;;9.43;5.60;;;11.20;99.90;;;;;;5097232;28;20396;-72
2022/10/07 05:45:18;;;;;;;6.93;5.20;;;11.10;99.90;;;;;;5109406;28;20389;-71
2022/10/07 05:47:44;;;;;;;7.28;5.40;;;11.00;99.90;;;;;;5094653;28;20388;-72
2022/10/07 05:50:09;;;;;;;5.28;4.68;;;10.90;99.90;;;;;;5094623;28;20413;-72
2022/10/07 05:52:35;;;;;;;8.10;4.90;;;11.10;99.90;;;;;;5090365;28;20410;-72
2022/10/07 05:55:01;;;;;;;6.32;4.50;;;11.10;99.90;;;;;;5087795;28;20455;-72
2022/10/07 05:57:26;;;;;;;4.80;3.80;;;11.10;99.90;;;;;;5098549;28;20408;-72
2022/10/07 05:59:52;;;;;;;9.17;4.90;;;11.10;99.90;;;;;;5091313;28;20471;-72
2022/10/07 06:02:18;;;;;;;6.53;4.70;;;11.20;99.90;;;;;;5095854;28;20412;-72
2022/10/07 06:04:47;;;;;;;5.93;5.25;;;11.20;99.90;;;;;;5095459;28;20369;-71
2022/10/07 06:07:14;;;;;;;6.00;4.70;;;11.30;99.90;;;;;;5095396;28;20421;-71
2022/10/07 06:15:09;;;;;;;5.65;4.40;;;11.30;99.90;;;;;;5093568;28;20442;-71
2022/10/07 06:17:44;;;;;;;4.88;4.20;;;11.30;99.90;;;;;;5091307;28;20403;-71
2022/10/07 06:20:13;;;;;;;5.10;4.60;;;11.30;99.90;;;;;;5092858;28;20519;-72
2022/10/07 06:22:38;;;;;;;5.63;4.38;;;11.30;99.90;;;;;;5085115;28;20398;-73
2022/10/07 06:25:05;;;;;;;6.25;4.30;;;11.30;99.90;;;;;;5087908;28;20409;-70
2022/10/07 06:27:31;;;;;;;5.20;4.60;;;11.30;99.90;;;;;;5077618;28;20486;-72
2022/10/07 06:29:56;;;;;;;5.30;4.75;;;11.30;99.90;;;;;;5087067;28;20431;-71
2022/10/07 06:32:23;;;;;;;5.30;4.70;;;11.30;99.90;;;;;;5084370;28;20493;-72
2022/10/07 06:34:48;;;;;;;5.30;4.80;;;11.30;99.90;;;;;;5087645;28;20467;-72
2022/10/07 06:37:14;;;;;;;6.20;5.60;;;11.30;99.90;;;;;;5090517;28;20382;-72
2022/10/07 06:39:40;;;;;;;7.90;5.73;;;11.40;99.90;;;;;;5098222;28;20500;-72
2022/10/07 06:42:06;;;;;;;8.98;5.97;;;11.40;99.90;;;;;;5094523;28;20408;-72
2022/10/07 06:44:32;;;;;;;7.82;6.22;;;11.50;99.90;;;;;;5098768;28;20887;-72
2022/10/07 06:46:59;;;;;;;6.63;5.90;;;11.70;99.90;;;;;;5085425;28;20508;-72
2022/10/07 06:49:24;;;;;;;7.28;6.05;;;11.80;99.90;;;;;;5083294;28;21255;-72
2022/10/07 06:51:50;;;;;;;6.87;6.03;;;11.90;99.90;;;;;;5088141;28;20394;-71
2022/10/07 06:54:15;;;;;;;6.60;5.90;;;12.00;99.90;;;;;;5089864;28;20393;-71
2022/10/07 06:56:41;;;;;;;6.93;5.90;;;12.10;99.90;;;;;;5087089;28;20453;-71
2022/10/07 06:59:06;;;;;;;8.77;6.07;;;12.20;99.90;;;;;;5089181;28;20439;-71
2022/10/07 07:01:32;;;;;;;7.87;6.30;;;12.40;99.90;;;;;;5090630;28;20410;-72
2022/10/07 07:03:58;;;;;;;6.63;6.13;;;12.50;99.90;;;;;;5090504;28;20760;-72
2022/10/07 07:06:24;;;;;;;7.03;5.97;;;12.60;99.90;;;;;;5090536;28;20416;-71
2022/10/07 07:08:50;;;;;;;6.95;6.22;;;12.70;99.90;;;;;;5087819;28;20398;-71
2022/10/07 07:11:35;;;;;;;6.20;5.60;;;12.90;99.90;;;;;;5090482;28;20374;-72
2022/10/07 07:14:02;;;;;;;7.95;5.72;;;13.00;99.90;;;;;;5089792;28;20888;-71
2022/10/07 07:16:28;;;;;;;6.73;6.10;;;13.30;99.90;;;;;;5090555;28;20477;-72
2022/10/07 07:19:00;;;;;;;6.95;6.18;;;13.30;99.90;;;;;;5090292;28;20413;-71
2022/10/07 07:21:29;;;;;;;6.28;5.68;;;13.40;99.90;;;;;;5089596;28;20926;-71
2022/10/07 07:23:56;;;;;;;7.38;5.93;;;13.60;99.90;;;;;;5069834;28;20394;-71
2022/10/07 07:26:22;;;;;;;6.88;5.40;;;13.60;99.90;;;;;;5070052;28;20407;-72
2022/10/07 07:28:57;;;;;;;5.90;5.40;;;13.80;99.90;;;;;;5069878;28;20411;-71
2022/10/07 07:31:22;;;;;;;6.32;5.72;;;13.90;99.90;;;;;;5084190;28;20562;-71
2022/10/07 07:33:51;;;;;;;7.18;5.40;;;14.00;99.90;;;;;;5081356;28;20398;-71
2022/10/07 07:36:19;;;;;;;6.80;5.93;;;14.00;99.90;;;;;;5088258;28;20406;-71
2022/10/07 07:38:56;;;;;;;7.50;5.87;;;14.00;99.90;;;;;;5089675;28;20397;-71
2022/10/07 07:41:30;;;;;;;7.20;6.00;;;14.00;99.90;;;;;;5088947;28;20417;-70
2022/10/07 07:43:57;;;;;;;6.30;5.70;;;14.10;99.90;;;;;;5077405;28;20401;-71
2022/10/07 07:46:26;;;;;;;6.20;5.60;;;14.10;99.90;;;;;;5083391;28;20390;-71
2022/10/07 07:48:53;;;;;;;6.30;5.70;;;14.10;99.90;;;;;;5083380;28;20544;-71
2022/10/07 07:51:19;;;;;;;7.50;5.60;;;14.10;99.90;;;;;;5089754;28;20493;-71
2022/10/07 07:53:45;;;;;;;7.10;6.27;;;14.10;99.90;;;;;;5082553;28;21115;-70
2022/10/07 07:56:11;;;;;;;6.75;5.90;;;14.10;99.90;;;;;;5084309;28;20942;-71
2022/10/07 07:58:38;;;;;;;7.32;6.10;;;14.20;99.90;;;;;;5082031;28;20392;-70
2022/10/07 08:01:10;;;;;;;6.47;5.88;;;14.20;99.90;;;;;;5082869;28;20935;-71
2022/10/07 08:03:36;;;;;;;6.50;5.80;;;14.30;99.90;;;;;;5082377;28;20402;-71
2022/10/07 08:06:04;;;;;;;7.10;5.82;;;14.40;99.90;;;;;;5084055;28;20427;-70
2022/10/07 08:08:30;;;;;;;6.15;5.55;;;14.40;99.90;;;;;;5080161;28;20859;-71
2022/10/07 08:11:04;;;;;;;6.65;6.05;;;14.50;99.90;;;;;;5081381;28;20493;-72
2022/10/07 08:13:31;;;;;;;9.40;6.30;;;14.60;99.90;;;;;;5100823;28;20414;-71
2022/10/07 08:15:57;;;;;;;6.97;6.28;;;14.60;99.90;;;;;;5079496;28;20394;-71
2022/10/07 08:18:23;;;;;;;6.40;5.80;;;14.70;99.90;;;;;;5080870;28;20394;-71
2022/10/07 08:20:56;;;;;;;6.70;5.90;;;14.70;99.90;;;;;;5078288;28;20459;-71
2022/10/07 08:23:21;;;;;;;6.85;6.15;;;14.80;99.90;;;;;;5080270;28;20913;-70
2022/10/07 08:25:52;;;;;;;7.30;6.10;;;14.80;99.90;;;;;;5082758;28;20414;-72
2022/10/07 08:28:18;;;;;;;6.77;5.80;;;14.90;99.90;;;;;;5090874;28;20394;-71
2022/10/07 08:30:45;;;;;;;6.23;5.63;;;15.00;99.90;;;;;;5089257;28;20397;-71
2022/10/07 08:33:10;;;;;;;6.45;5.95;;;15.10;99.90;;;;;;5092065;28;20390;-71
2022/10/07 08:35:36;;;;;;;6.10;5.60;;;15.10;99.90;;;;;;5092400;28;20386;-71
2022/10/07 08:38:02;;;;;;;6.00;5.50;;;15.20;99.90;;;;;;5092222;28;20830;-71
2022/10/07 08:40:28;;;;;;;5.72;5.18;;;15.20;99.90;;;;;;5095729;28;20411;-71
2022/10/07 08:42:54;;;;;;;6.60;5.43;;;15.50;99.90;;;;;;5094295;28;20405;-72
2022/10/07 08:45:30;;;;;;;7.35;5.13;;;15.60;99.90;;;;;;5089861;28;20389;-71
2022/10/07 08:47:59;;;;;;;10.82;6.00;;;15.60;99.90;;;;;;5092315;28;20389;-71
2022/10/07 08:50:33;;;;;;;7.95;5.10;;;15.80;99.90;;;;;;5086320;28;21205;-72
2022/10/07 08:53:07;;;;;;;7.73;5.40;;;15.90;99.90;;;;;;5086554;28;20398;-71
2022/10/07 08:55:45;;;;;;;8.95;5.40;;;15.90;99.90;;;;;;5091002;28;20404;-71
2022/10/07 08:58:29;;;;;;;6.10;5.47;;;16.00;99.90;;;;;;5091348;28;20938;-71
2022/10/07 09:01:01;;;;;;;8.83;5.20;;;16.00;99.90;;;;;;5088763;28;20446;-71
2022/10/07 09:03:46;;;;;;;8.70;5.20;;;16.10;99.90;;;;;;5095794;28;20401;-71
2022/10/07 09:06:18;;;;;;;7.20;4.80;;;16.00;99.90;;;;;;5089669;28;21059;-71
2022/10/07 09:08:56;;;;;;;7.30;5.70;;;16.10;99.90;;;;;;5087056;28;20520;-72
2022/10/07 09:11:24;;;;;;;6.30;5.10;;;16.10;99.90;;;;;;5080627;28;20416;-72
2022/10/07 09:13:55;;;;;;;6.43;5.25;;;16.10;99.90;;;;;;5087809;28;20394;-72
2022/10/07 09:16:42;;;;;;;8.45;5.40;;;16.10;99.90;;;;;;5092019;28;20439;-71
2022/10/07 09:19:15;;;;;;;7.40;5.00;;;16.10;99.90;;;;;;5089476;28;20828;-71
2022/10/07 09:21:46;;;;;;;7.63;4.88;;;16.20;99.90;;;;;;5091711;28;20408;-72
2022/10/07 09:24:15;;;;;;;6.00;4.47;;;16.30;99.90;;;;;;5098223;28;20457;-72
2022/10/07 09:26:41;;;;;;;7.77;5.27;;;16.30;99.90;;;;;;5091489;28;20884;-72
2022/10/07 09:29:08;;;;;;;5.63;4.43;;;16.30;99.90;;;;;;5087962;28;20394;-72
2022/10/07 09:31:34;;;;;;;8.27;5.00;;;16.50;99.90;;;;;;5091213;28;20389;-72
2022/10/07 09:34:00;;;;;;;5.38;4.72;;;16.40;99.90;;;;;;5091965;28;20386;-72
2022/10/07 09:36:25;;;;;;;6.30;4.38;;;16.50;99.90;;;;;;5091668;28;20394;-71
2022/10/07 09:38:52;;;;;;;5.10;4.10;;;16.60;99.90;;;;;;5091655;28;20398;-72
2022/10/07 09:41:34;;;;;;;7.00;4.40;;;16.70;99.90;;;;;;5092020;28;20402;-72
2022/10/07 09:44:02;;;;;;;5.88;4.43;;;16.70;99.90;;;;;;5091796;28;20383;-71
2022/10/07 09:46:46;;;;;;;7.05;4.45;;;16.60;99.90;;;;;;5092061;28;20465;-71
2022/10/07 09:49:27;;;;;;;7.75;4.78;;;16.70;99.90;;;;;;5104612;22;21146;-73
2022/10/07 09:52:04;;;;;;;7.00;4.95;;;16.70;99.90;;;;;;5051562;28;20401;-73
2022/10/07 09:54:33;;;;;;;7.15;4.72;;;16.80;99.90;;;;;;5059482;28;20398;-73
2022/10/07 09:57:02;;;;;;;5.15;4.10;;;16.90;99.90;;;;;;5051259;28;20477;-74
2022/10/07 09:59:30;;;;;;;7.97;4.25;;;16.90;99.90;;;;;;5051480;28;20937;-73
2022/10/07 10:02:20;;;;;;;5.85;4.40;;;16.90;99.90;;;;;;5051271;28;20470;-74
2022/10/07 10:04:52;;;;;;;6.10;4.80;;;17.10;99.90;;;;;;5050650;28;20772;-73
2022/10/07 10:07:26;;;;;;;6.70;4.45;;;17.20;99.90;;;;;;5051794;28;20451;-74
2022/10/07 10:10:02;;;;;;;5.97;4.40;;;17.30;99.90;;;;;;5048737;28;20408;-73
2022/10/07 10:12:31;;;;;;;5.32;4.20;;;17.30;99.90;;;;;;5051213;28;20405;-74
2022/10/07 10:15:00;;;;;;;7.07;4.60;;;17.50;99.90;;;;;;5051302;28;20400;-74
2022/10/07 10:17:30;;;;;;;5.30;4.20;;;17.40;99.90;;;;;;5051395;28;20774;-74
2022/10/07 10:20:35;;;;;;;5.90;4.20;;;17.50;99.90;;;;;;5051225;28;20440;-74
2022/10/07 10:23:22;;;;;;;9.27;4.88;;;17.60;99.90;;;;;;5050481;28;20953;-74
2022/10/07 10:26:24;;;;;;;6.55;4.30;;;17.70;99.90;;;;;;5050912;28;20394;-74
2022/10/07 10:29:08;;;;;;;7.22;4.70;;;17.70;99.90;;;;;;5050760;28;20856;-74
2022/10/07 10:32:00;;;;;;;5.05;4.00;;;17.80;99.90;;;;;;5045800;28;20807;-74
2022/10/07 10:34:54;;;;;;;6.67;4.20;;;17.80;99.90;;;;;;5053032;28;20930;-74
2022/10/07 10:37:33;;;;;;;5.90;4.03;;;18.10;99.90;;;;;;5051875;28;20838;-74
2022/10/07 10:40:23;;;;;;;5.03;4.30;;;18.20;99.90;;;;;;5047465;28;20818;-75
2022/10/07 10:43:24;;;;;;;7.25;4.00;;;18.20;99.90;;;;;;5049029;28;20390;-74
2022/10/07 10:46:26;;;;;;;7.07;4.90;;;18.30;99.90;;;;;;5018723;28;20435;-74
2022/10/07 10:49:21;;;;;;;6.00;4.32;;;18.50;99.90;;;;;;5050494;28;20523;-74
2022/10/07 10:52:11;;;;;;;7.18;4.20;;;18.70;99.90;;;;;;5048895;28;20899;-74
2022/10/07 10:54:49;;;;;;;9.82;4.35;;;18.90;99.90;;;;;;5049852;28;20439;-74
2022/10/07 10:57:38;;;;;;;6.90;4.38;;;19.10;99.90;;;;;;5049084;28;20441;-74
2022/10/07 11:00:10;;;;;;;6.63;3.72;;;19.10;99.90;;;;;;5043825;28;20411;-74
2022/10/07 11:02:46;;;;;;;4.32;3.92;;;19.30;99.90;;;;;;5050063;28;20389;-74
2022/10/07 11:05:16;;;;;;;8.30;4.10;;;19.40;99.90;;;;;;5040723;28;20843;-74
2022/10/07 11:08:00;;;;;;;6.05;3.90;;;20.00;99.90;;;;;;5050193;28;20408;-75
2022/10/07 11:10:45;;;;;;;3.80;3.40;;;19.90;99.90;;;;;;5048879;28;20416;-74
2022/10/07 11:13:57;;;;;;;4.65;4.00;;;20.30;99.90;;;;;;5049623;28;20413;-75
2022/10/07 11:16:49;;;;;;;5.07;3.78;;;20.40;99.90;;;;;;4987331;28;20429;-75
2022/10/07 11:19:19;;;;;;;6.78;3.67;;;21.50;99.90;;;;;;5049770;28;20393;-75
2022/10/07 11:21:57;;;;;;;3.60;3.30;;;21.40;99.90;;;;;;5049802;28;20431;-75
2022/10/07 11:24:31;;;;;;;4.30;3.65;;;22.00;99.90;;;;;;5047692;28;20408;-75
2022/10/07 11:27:09;;;;;;;5.55;3.60;;;22.70;99.90;;;;;;5054165;28;20377;-75
2022/10/07 11:30:12;;;;;;;4.43;3.40;;;22.60;99.90;;;;;;5043290;28;20765;-75
2022/10/07 11:33:03;;;;;;;7.28;4.40;;;21.80;99.90;;;;;;5050486;28;20399;-75
2022/10/07 11:35:35;;;;;;;6.57;3.90;;;22.80;99.90;;;;;;5059750;28;20762;-74
2022/10/07 11:38:09;;;;;;;4.75;3.60;;;22.90;99.60;;;;;;5052907;28;20447;-74
2022/10/07 11:40:47;;;;;;;5.00;3.60;;;22.30;99.90;;;;;;5047967;28;20407;-74
2022/10/07 11:43:32;;;;;;;6.05;3.88;;;22.60;99.90;;;;;;5050666;28;20392;-75
2022/10/07 11:46:14;;;;;;;4.90;3.25;;;23.00;99.90;;;;;;5049676;28;20401;-75
2022/10/07 11:48:47;;;;;;;8.20;4.00;;;22.80;99.90;;;;;;5049156;28;20397;-75
2022/10/07 11:51:51;;;;;;;4.43;3.92;;;22.30;99.90;;;;;;5045677;28;20405;-75
2022/10/07 11:54:21;;;;;;;3.65;3.20;;;22.20;99.90;;;;;;5030692;28;20401;-74
2022/10/07 11:56:52;;;;;;;5.47;3.53;;;23.20;99.90;;;;;;5049866;28;20389;-74
2022/10/07 11:59:47;;;;;;;4.90;3.75;;;22.90;99.30;;;;;;5050240;28;20396;-76
2022/10/07 12:02:27;;;;;;;5.32;3.53;;;22.90;99.90;;;;;;5053187;28;20456;-75
2022/10/07 12:04:58;;;;;;;3.60;3.20;;;22.90;99.90;;;;;;5052318;28;20804;-74
2022/10/07 12:07:57;;;;;;;3.80;2.85;;;22.80;99.90;;;;;;5053535;28;20394;-74
2022/10/07 12:10:28;;;;;;;6.22;3.60;;;22.50;99.90;;;;;;5053414;28;20442;-74
2022/10/07 12:12:57;;;;;;;4.53;3.47;;;22.40;99.90;;;;;;5051770;28;20934;-75
2022/10/07 12:15:41;;;;;;;3.55;2.95;;;22.60;99.90;;;;;;5052130;28;20393;-74
2022/10/07 12:18:06;;;;;;;6.47;3.92;;;22.50;99.90;;;;;;5053085;28;20403;-74
2022/10/07 12:20:33;;;;;;;3.80;3.38;;;22.40;99.90;;;;;;5053132;28;20841;-74
2022/10/07 12:23:20;;;;;;;3.72;3.42;;;21.90;99.90;;;;;;5052614;28;20751;-75
2022/10/07 12:26:00;;;;;;;4.25;3.90;;;21.50;99.90;;;;;;5052968;28;20418;-75
2022/10/07 12:28:46;;;;;;;5.07;3.63;;;21.80;99.90;;;;;;5052778;28;20424;-74
2022/10/07 12:31:11;;;;;;;7.25;3.80;;;21.90;99.90;;;;;;5053185;28;20751;-75
2022/10/07 12:33:39;;;;;;;5.70;4.15;;;21.80;99.90;;;;;;5052765;28;20377;-75
2022/10/07 12:36:27;;;;;;;4.80;3.85;;;22.00;99.90;;;;;;5053152;28;20902;-75
2022/10/07 12:38:58;;;;;;;4.85;3.60;;;21.80;99.90;;;;;;5052866;28;20758;-74
2022/10/07 12:41:37;;;;;;;6.65;4.05;;;22.10;99.90;;;;;;5053170;28;20434;-74
2022/10/07 12:44:21;;;;;;;6.60;4.10;;;22.30;99.90;;;;;;5053351;28;20689;-75
2022/10/07 12:46:59;;;;;;;4.78;3.80;;;22.20;99.90;;;;;;5053082;28;20800;-75
2022/10/07 12:49:29;;;;;;;9.15;4.10;;;22.00;99.90;;;;;;5051512;28;20489;-74
2022/10/07 12:51:58;;;;;;;7.55;4.88;;;21.90;99.90;;;;;;5053042;28;20918;-73
2022/10/07 12:54:35;;;;;;;5.30;3.40;;;21.60;99.90;;;;;;5052346;28;20763;-73
2022/10/07 12:57:02;;;;;;;6.55;3.60;;;22.00;99.90;;;;;;5044901;28;20393;-75
2022/10/07 12:59:49;;;;;;;4.13;3.70;;;22.20;99.90;;;;;;5052751;28;20759;-75
2022/10/07 13:02:40;;;;;;;5.53;3.80;;;22.10;99.90;;;;;;5051834;28;20417;-75
2022/10/07 13:05:43;;;;;;;6.25;4.18;;;22.10;99.90;;;;;;5050810;28;20443;-76
2022/10/07 13:09:01;;;;;;;7.20;4.07;;;22.40;99.90;;;;;;5053989;28;20405;-74
2022/10/07 13:12:00;;;;;;;4.18;3.60;;;22.40;99.90;;;;;;5050207;28;20400;-75
2022/10/07 13:14:35;;;;;;;7.03;3.90;;;22.50;99.90;;;;;;5056148;28;20443;-74
2022/10/07 13:17:34;;;;;;;5.43;4.10;;;22.40;99.90;;;;;;5051537;28;20470;-74
2022/10/07 13:20:22;;;;;;;5.40;3.60;;;22.50;99.90;;;;;;5052523;28;20410;-75
2022/10/07 13:22:48;;;;;;;7.60;4.20;;;22.70;99.90;;;;;;5048391;28;20471;-76